createdAt,value
2016-06-28T00:00:02.271Z,57.39
2016-06-28T00:01:02.300Z,56.94
2016-06-28T00:02:02.275Z,57.1
2016-06-28T00:03:02.310Z,56.74
2016-06-28T00:04:02.281Z,56.56
2016-06-28T00:05:02.295Z,56.94
2016-06-28T00:06:02.296Z,56.91
2016-06-28T00:07:02.300Z,56.74
2016-06-28T00:08:02.306Z,56.56
2016-06-28T00:09:02.307Z,56.94
2016-06-28T00:10:02.323Z,56.91
2016-06-28T00:11:02.316Z,57.39
2016-06-28T00:12:02.331Z,57.29
2016-06-28T00:13:02.335Z,57.39
2016-06-28T00:14:02.334Z,57.59
2016-06-28T00:15:01.723Z,57.01
2016-06-28T00:16:01.715Z,57.2
2016-06-28T00:17:02.347Z,57.01
2016-06-28T00:18:01.743Z,57.1
2016-06-28T00:19:02.358Z,57.39
2016-06-28T00:20:02.573Z,57.29
2016-06-28T00:21:01.742Z,57.68
2016-06-28T00:22:02.367Z,57.97
2016-06-28T00:23:02.372Z,57.68
2016-06-28T00:24:02.368Z,57.78
2016-06-28T00:25:02.390Z,57.49
2016-06-28T00:26:01.763Z,58.07
2016-06-28T00:27:02.385Z,57.68
2016-06-28T00:28:01.803Z,57.68
2016-06-28T00:29:02.396Z,58.45
2016-06-28T00:30:01.780Z,58.36
2016-06-28T00:31:01.786Z,57.97
2016-06-28T00:32:01.790Z,58.07
2016-06-28T00:33:01.804Z,57.78
2016-06-28T00:34:01.803Z,57.01
2016-06-28T00:35:01.818Z,57.29
2016-06-28T00:36:02.419Z,57.01
2016-06-28T00:37:02.428Z,57.29
2016-06-28T00:38:01.811Z,57.2
2016-06-28T00:39:02.435Z,57.49
2016-06-28T00:40:02.439Z,57.1
2016-06-28T00:41:01.832Z,57.29
2016-06-28T00:42:02.459Z,56.91
2016-06-28T00:43:02.455Z,57.49
2016-06-28T00:44:02.451Z,57.39
2016-06-28T00:45:02.459Z,57.01
2016-06-28T00:46:02.462Z,57.39
2016-06-28T00:47:01.856Z,57.29
2016-06-28T00:48:02.468Z,57.2
2016-06-28T00:49:02.471Z,57.1
2016-06-28T00:50:02.483Z,57.29
2016-06-28T00:51:02.495Z,57.1
2016-06-28T00:52:02.483Z,57.49
2016-06-28T00:53:02.493Z,57.29
2016-06-28T00:54:01.882Z,57.01
2016-06-28T00:55:02.491Z,57.29
2016-06-28T00:56:02.498Z,57.01
2016-06-28T00:57:02.503Z,57.49
2016-06-28T00:58:02.571Z,57.87
2016-06-28T00:59:01.894Z,58.33
2016-06-28T01:00:02.511Z,58.42
2016-06-28T01:01:01.909Z,57.94
2016-06-28T01:02:02.527Z,57.85
2016-06-28T01:03:02.525Z,57.49
2016-06-28T01:04:02.534Z,57.1
2016-06-28T01:05:01.931Z,57.39
2016-06-28T01:06:01.924Z,57.39
2016-06-28T01:07:02.541Z,57.2
2016-06-28T01:08:02.546Z,57.01
2016-06-28T01:09:16.771Z,57.1
2016-06-28T01:10:02.552Z,56.91
2016-06-28T01:11:01.931Z,57.39
2016-06-28T01:12:02.555Z,57.2
2016-06-28T01:13:02.566Z,57.49
2016-06-28T01:14:02.574Z,57.97
2016-06-28T01:15:02.589Z,57.85
2016-06-28T01:16:02.583Z,57.56
2016-06-28T01:17:01.955Z,58.07
2016-06-28T01:18:01.976Z,58.17
2016-06-28T01:19:02.587Z,57.59
2016-06-28T01:20:02.589Z,57.39
2016-06-28T01:21:01.989Z,56.72
2016-06-28T01:22:02.625Z,56.81
2016-06-28T01:23:02.634Z,56.33
2016-06-28T01:24:02.607Z,56.26
2016-06-28T01:25:02.615Z,56.16
2016-06-28T01:26:02.619Z,56.84
2016-06-28T01:27:02.622Z,56.43
2016-06-28T01:28:02.630Z,56.91
2016-06-28T01:29:02.633Z,57.39
2016-06-28T01:30:02.024Z,57.49
2016-06-28T01:31:02.637Z,57.78
2016-06-28T01:32:02.031Z,57.65
2016-06-28T01:33:02.679Z,57.39
2016-06-28T01:34:02.654Z,57.49
2016-06-28T01:35:02.663Z,57.17
2016-06-28T01:36:02.681Z,57.01
2016-06-28T01:37:02.662Z,57.29
2016-06-28T01:38:02.069Z,57.59
2016-06-28T01:39:02.055Z,58.04
2016-06-28T01:40:02.669Z,57.65
2016-06-28T01:41:02.681Z,57.17
2016-06-28T01:42:02.679Z,57.1
2016-06-28T01:43:02.077Z,57.01
2016-06-28T01:44:02.067Z,57.56
2016-06-28T01:45:02.079Z,57.75
2016-06-28T01:46:02.685Z,58.42
2016-06-28T01:47:02.709Z,58.42
2016-06-28T01:48:02.079Z,57.65
2016-06-28T01:49:02.087Z,57.94
2016-06-28T01:50:02.711Z,57.75
2016-06-28T01:51:02.704Z,57.85
2016-06-28T01:52:02.709Z,57.46
2016-06-28T01:53:02.779Z,57.56
2016-06-28T01:54:02.726Z,56.98
2016-06-28T01:55:02.719Z,57.01
2016-06-28T01:56:02.725Z,56.72
2016-06-28T01:57:02.738Z,56.33
2016-06-28T01:58:02.737Z,56.52
2016-06-28T01:59:02.787Z,56.62
2016-06-28T02:00:02.127Z,56.33
2016-06-28T02:01:02.141Z,56.91
2016-06-28T02:02:02.751Z,56.72
2016-06-28T02:03:02.752Z,57.39
2016-06-28T02:04:02.761Z,57.01
2016-06-28T02:05:02.766Z,56.98
2016-06-28T02:06:02.157Z,57.01
2016-06-28T02:07:02.145Z,57.17
2016-06-28T02:08:02.775Z,57.37
2016-06-28T02:09:02.787Z,56.98
2016-06-28T02:10:02.178Z,57.2
2016-06-28T02:11:02.163Z,57.46
2016-06-28T02:12:02.804Z,57.07
2016-06-28T02:13:02.791Z,57.46
2016-06-28T02:14:02.811Z,56.72
2016-06-28T02:15:02.797Z,56.72
2016-06-28T02:16:02.816Z,56.72
2016-06-28T02:17:02.807Z,56.91
2016-06-28T02:18:02.197Z,56.52
2016-06-28T02:19:02.819Z,56.33
2016-06-28T02:20:02.829Z,56.24
2016-06-28T02:21:02.826Z,56.52
2016-06-28T02:22:02.215Z,57.29
2016-06-28T02:23:02.222Z,57.07
2016-06-28T02:24:02.225Z,57.46
2016-06-28T02:25:02.842Z,57.94
2016-06-28T02:26:15.554Z,57.85
2016-06-28T02:27:02.834Z,57.75
2016-06-28T02:28:02.824Z,57.94
2016-06-28T02:29:02.831Z,57.75
2016-06-28T02:30:02.837Z,57.75
2016-06-28T02:31:02.845Z,58.42
2016-06-28T02:32:02.847Z,58.04
2016-06-28T02:33:02.227Z,58.2
2016-06-28T02:34:02.852Z,58.04
2016-06-28T02:35:02.845Z,58.04
2016-06-28T02:36:02.234Z,58.42
2016-06-28T02:37:02.243Z,58.23
2016-06-28T02:38:02.849Z,58.23
2016-06-28T02:39:02.855Z,58.52
2016-06-28T02:40:02.862Z,58.3
2016-06-28T02:41:02.261Z,58.3
2016-06-28T02:42:02.902Z,58.33
2016-06-28T02:43:02.863Z,58.04
2016-06-28T02:44:02.892Z,57.85
2016-06-28T02:45:02.262Z,56.79
2016-06-28T02:46:02.267Z,57.2
2016-06-28T02:47:02.900Z,57.46
2016-06-28T02:48:02.892Z,57.75
2016-06-28T02:49:02.277Z,57.75
2016-06-28T02:50:02.896Z,58.52
2016-06-28T02:51:02.287Z,57.85
2016-06-28T02:52:02.279Z,57.94
2016-06-28T02:53:02.894Z,57.94
2016-06-28T02:54:02.283Z,57.94
2016-06-28T02:55:02.292Z,57.75
2016-06-28T02:56:02.907Z,57.85
2016-06-28T02:57:02.917Z,57.85
2016-06-28T02:58:02.338Z,58.23
2016-06-28T02:59:02.927Z,58.42
2016-06-28T03:00:02.303Z,57.94
2016-06-28T03:01:02.301Z,58.04
2016-06-28T03:02:02.338Z,57.94
2016-06-28T03:03:02.930Z,57.56
2016-06-28T03:04:02.922Z,57.27
2016-06-28T03:05:02.329Z,57.27
2016-06-28T03:06:02.936Z,57.27
2016-06-28T03:07:02.942Z,57.37
2016-06-28T03:08:02.947Z,57.75
2016-06-28T03:09:02.950Z,58.33
2016-06-28T03:10:02.947Z,58.04
2016-06-28T03:11:02.330Z,58.14
2016-06-28T03:12:02.349Z,58.59
2016-06-28T03:13:02.949Z,58.04
2016-06-28T03:14:02.347Z,58.4
2016-06-28T03:15:02.349Z,57.85
2016-06-28T03:16:02.961Z,58.04
2016-06-28T03:17:02.972Z,57.94
2016-06-28T03:18:02.980Z,58.14
2016-06-28T03:19:02.373Z,58.14
2016-06-28T03:20:02.985Z,58.14
2016-06-28T03:21:02.369Z,57.56
2016-06-28T03:22:02.982Z,57.75
2016-06-28T03:23:02.379Z,57.85
2016-06-28T03:24:02.986Z,58.04
2016-06-28T03:25:03.007Z,57.85
2016-06-28T03:26:02.387Z,58.23
2016-06-28T03:27:02.999Z,58.23
2016-06-28T03:28:02.999Z,58.23
2016-06-28T03:29:02.392Z,57.75
2016-06-28T03:30:02.391Z,57.85
2016-06-28T03:31:03.001Z,57.85
2016-06-28T03:32:03.010Z,58.04
2016-06-28T03:33:03.023Z,58.42
2016-06-28T03:34:02.416Z,58.42
2016-06-28T03:35:02.410Z,57.65
2016-06-28T03:36:02.414Z,57.85
2016-06-28T03:37:03.050Z,58.42
2016-06-28T03:38:03.043Z,57.85
2016-06-28T03:39:03.042Z,57.75
2016-06-28T03:40:03.048Z,58.04
2016-06-28T03:41:03.029Z,57.94
2016-06-28T03:42:02.424Z,58.2
2016-06-28T03:43:02.430Z,57.75
2016-06-28T03:44:03.043Z,57.75
2016-06-28T03:45:03.057Z,58.42
2016-06-28T03:46:03.052Z,58.01
2016-06-28T03:47:03.055Z,57.92
2016-06-28T03:48:02.450Z,58.2
2016-06-28T03:49:03.056Z,58.11
2016-06-28T03:50:02.459Z,58.33
2016-06-28T03:51:03.074Z,58.42
2016-06-28T03:52:03.065Z,58.23
2016-06-28T03:53:03.079Z,58.04
2016-06-28T03:54:03.101Z,58.33
2016-06-28T03:55:03.078Z,58.11
2016-06-28T03:56:03.089Z,58.01
2016-06-28T03:57:03.084Z,58.04
2016-06-28T03:58:02.482Z,58.14
2016-06-28T03:59:03.085Z,58.01
2016-06-28T04:00:03.086Z,57.85
2016-06-28T04:01:03.099Z,58.3
2016-06-28T04:02:02.486Z,58.2
2016-06-28T04:03:03.093Z,58.4
2016-06-28T04:04:03.099Z,58.69
2016-06-28T04:05:03.107Z,58.49
2016-06-28T04:06:03.110Z,59.07
2016-06-28T04:07:02.503Z,58.2
2016-06-28T04:08:03.121Z,59.07
2016-06-28T04:09:03.112Z,59.17
2016-06-28T04:10:03.125Z,58.97
2016-06-28T04:11:03.122Z,58.59
2016-06-28T04:12:03.113Z,58.2
2016-06-28T04:13:03.117Z,58.49
2016-06-28T04:14:03.124Z,58.4
2016-06-28T04:15:02.518Z,58.88
2016-06-28T04:16:03.166Z,59.17
2016-06-28T04:17:03.126Z,59.17
2016-06-28T04:18:03.130Z,59.17
2016-06-28T04:19:02.523Z,59.27
2016-06-28T04:20:02.528Z,59.27
2016-06-28T04:21:03.145Z,59.17
2016-06-28T04:22:02.750Z,58.97
2016-06-28T04:23:03.145Z,58.49
2016-06-28T04:24:03.164Z,58.59
2016-06-28T04:25:02.532Z,58.2
2016-06-28T04:26:03.167Z,58.14
2016-06-28T04:27:03.151Z,58.33
2016-06-28T04:28:03.163Z,58.42
2016-06-28T04:29:02.542Z,57.65
2016-06-28T04:30:03.160Z,57.46
2016-06-28T04:31:03.186Z,57.07
2016-06-28T04:32:02.574Z,57.27
2016-06-28T04:33:03.194Z,57.85
2016-06-28T04:34:02.582Z,58.3
2016-06-28T04:35:03.202Z,58.78
2016-06-28T04:36:03.210Z,58.88
2016-06-28T04:37:03.211Z,59.27
2016-06-28T04:38:03.212Z,59.27
2016-06-28T04:39:02.594Z,59.07
2016-06-28T04:40:02.597Z,59.27
2016-06-28T04:41:03.223Z,58.59
2016-06-28T04:42:03.223Z,58.69
2016-06-28T04:43:03.213Z,58.59
2016-06-28T04:44:03.235Z,58.3
2016-06-28T04:45:03.224Z,58.49
2016-06-28T04:46:03.228Z,58.4
2016-06-28T04:47:03.235Z,58.4
2016-06-28T04:48:03.231Z,58.11
2016-06-28T04:49:02.629Z,58.42
2016-06-28T04:50:03.238Z,57.65
2016-06-28T04:51:03.234Z,57.65
2016-06-28T04:52:03.247Z,57.85
2016-06-28T04:53:03.241Z,57.56
2016-06-28T04:54:02.635Z,57.65
2016-06-28T04:55:03.252Z,58.04
2016-06-28T04:56:02.642Z,58.14
2016-06-28T04:57:03.253Z,58.01
2016-06-28T04:58:03.265Z,58.3
2016-06-28T04:59:03.261Z,58.4
2016-06-28T05:00:03.260Z,59.07
2016-06-28T05:01:03.261Z,59.17
2016-06-28T05:02:02.714Z,59.27
2016-06-28T05:03:03.277Z,59.27
2016-06-28T05:04:02.814Z,58.97
2016-06-28T05:05:03.276Z,59.17
2016-06-28T05:06:03.290Z,59.94
2016-06-28T05:07:02.691Z,60.2
2016-06-28T05:08:02.667Z,59.65
2016-06-28T05:09:02.713Z,59.27
2016-06-28T05:10:02.669Z,59.55
2016-06-28T05:11:03.289Z,59.36
2016-06-28T05:12:03.297Z,59.75
2016-06-28T05:13:03.301Z,58.78
2016-06-28T05:14:02.672Z,59.65
2016-06-28T05:15:03.294Z,59.33
2016-06-28T05:16:03.298Z,59.17
2016-06-28T05:17:02.692Z,59.84
2016-06-28T05:18:02.678Z,59.75
2016-06-28T05:19:03.302Z,59.72
2016-06-28T05:20:03.286Z,59.52
2016-06-28T05:21:02.673Z,59.75
2016-06-28T05:22:03.279Z,58.97
2016-06-28T05:23:02.672Z,59.45
2016-06-28T05:24:03.295Z,59.07
2016-06-28T05:25:03.287Z,59.17
2016-06-28T05:26:03.287Z,59.17
2016-06-28T05:27:03.293Z,59.07
2016-06-28T05:28:03.290Z,59.75
2016-06-28T05:29:03.305Z,59.17
2016-06-28T05:30:02.684Z,58.69
2016-06-28T05:31:03.302Z,59.07
2016-06-28T05:32:02.689Z,59.07
2016-06-28T05:33:02.690Z,59.17
2016-06-28T05:34:02.703Z,59.17
2016-06-28T05:35:03.307Z,58.78
2016-06-28T05:36:02.702Z,59.36
2016-06-28T05:37:03.311Z,58.69
2016-06-28T05:38:03.325Z,59.84
2016-06-28T05:39:02.699Z,59.45
2016-06-28T05:40:03.325Z,59.07
2016-06-28T05:41:03.322Z,58.69
2016-06-28T05:42:03.327Z,58.78
2016-06-28T05:50:58.970Z,58.69
2016-06-28T05:51:59.586Z,58.11
2016-06-28T05:52:59.567Z,58.3
2016-06-28T05:53:59.570Z,57.75
2016-06-28T05:54:59.587Z,58.2
2016-06-28T05:55:59.580Z,58.11
2016-06-28T05:56:59.587Z,56.98
2016-06-28T05:57:59.586Z,57.46
2016-06-28T05:58:59.591Z,58.23
2016-06-28T05:59:59.630Z,58.23
2016-06-28T06:00:58.985Z,58.33
2016-06-28T06:01:58.983Z,57.27
2016-06-28T06:02:59.598Z,56.43
2016-06-28T06:03:59.610Z,55.56
2016-06-28T06:04:59.618Z,55.49
2016-06-28T06:05:59.618Z,55.2
2016-06-28T06:06:58.998Z,54.75
2016-06-28T06:07:59.625Z,55.2
2016-06-28T06:08:59.623Z,55.4
2016-06-28T06:09:59.629Z,56.24
2016-06-28T06:10:59.633Z,56.43
2016-06-28T06:11:59.631Z,56.33
2016-06-28T06:12:59.642Z,56.24
2016-06-28T06:13:59.647Z,56.24
2016-06-28T06:14:59.035Z,56.52
2016-06-28T06:15:59.649Z,56.14
2016-06-28T06:16:59.655Z,56.24
2016-06-28T06:17:59.674Z,56.72
2016-06-28T06:18:59.053Z,57.39
2016-06-28T06:19:59.068Z,56.98
2016-06-28T06:20:59.672Z,56.98
2016-06-28T06:21:59.067Z,56.72
2016-06-28T06:22:59.084Z,56.81
2016-06-28T06:23:59.693Z,56.98
2016-06-28T06:24:59.070Z,56.79
2016-06-28T06:25:59.707Z,57.29
2016-06-28T06:26:59.696Z,56.79
2016-06-28T06:27:59.696Z,56.72
2016-06-28T06:28:59.089Z,56.33
2016-06-28T06:29:59.704Z,55.76
2016-06-28T06:30:59.707Z,55.27
2016-06-28T06:31:59.949Z,55.3
2016-06-28T06:32:59.725Z,54.72
2016-06-28T06:33:59.724Z,53.88
2016-06-28T06:34:59.738Z,53.59
2016-06-28T06:35:59.735Z,53.69
2016-06-28T06:36:59.132Z,53.59
2016-06-28T06:37:59.742Z,54.24
2016-06-28T06:39:09.945Z,54.75
2016-06-28T06:39:59.135Z,53.69
2016-06-28T06:41:00.626Z,53.11
2016-06-28T06:41:59.761Z,51.97
2016-06-28T06:43:00.330Z,51.49
2016-06-28T06:43:59.174Z,51.32
2016-06-28T06:44:59.787Z,51.61
2016-06-28T06:45:59.820Z,51.87
2016-06-28T06:46:59.187Z,51.78
2016-06-28T06:47:59.204Z,51.68
2016-06-28T06:48:59.816Z,51.23
2016-06-28T06:49:59.827Z,51.42
2016-06-28T06:50:59.828Z,51.03
2016-06-28T06:52:00.957Z,50.84
2016-06-28T06:52:59.847Z,51.13
2016-06-28T06:53:59.996Z,50.55
2016-06-28T06:54:59.243Z,50.55
2016-06-28T06:55:59.872Z,50.28
2016-06-28T06:56:59.260Z,49.9
2016-06-28T06:57:59.887Z,49.41
2016-06-28T06:58:59.894Z,49.6
2016-06-28T06:59:59.285Z,49.51
2016-06-28T07:00:59.908Z,49.6
2016-06-28T07:01:59.930Z,49.7
2016-06-28T07:03:00.117Z,49.22
2016-06-28T07:03:59.930Z,49.05
2016-06-28T07:04:59.947Z,49.34
2016-06-28T07:05:59.947Z,49.02
2016-06-28T07:06:59.354Z,48.95
2016-06-28T07:07:59.359Z,49.34
2016-06-28T07:08:59.978Z,49.15
2016-06-28T07:09:59.373Z,48.95
2016-06-28T07:10:59.384Z,48.27
2016-06-28T07:11:59.389Z,48.95
2016-06-28T07:13:00.006Z,48.93
2016-06-28T07:14:00.176Z,49.99
2016-06-28T07:14:59.417Z,49.9
2016-06-28T07:15:59.418Z,49.7
2016-06-28T07:17:00.055Z,49.12
2016-06-28T07:17:59.436Z,49.32
2016-06-28T07:19:00.058Z,48.54
2016-06-28T07:19:59.455Z,48.47
2016-06-28T07:21:00.084Z,49.41
2016-06-28T07:21:59.473Z,49.51
2016-06-28T07:23:00.106Z,49.87
2016-06-28T07:24:00.099Z,49.49
2016-06-28T07:24:59.492Z,49.39
2016-06-28T07:26:00.120Z,49.95
2016-06-28T07:27:00.662Z,49.46
2016-06-28T07:28:00.131Z,49.85
2016-06-28T07:29:00.134Z,49.75
2016-06-28T07:30:00.147Z,50.04
2016-06-28T07:30:59.534Z,49.68
2016-06-28T07:32:00.162Z,50.74
2016-06-28T07:33:00.157Z,49.97
2016-06-28T07:34:00.187Z,49
2016-06-28T07:34:59.558Z,49.95
2016-06-28T07:35:59.575Z,49.77
2016-06-28T07:37:00.179Z,50.55
2016-06-28T07:38:00.995Z,50.07
2016-06-28T07:39:00.194Z,48.81
2016-06-28T07:40:00.208Z,48.81
2016-06-28T07:40:59.597Z,49
2016-06-28T07:42:00.216Z,49.1
2016-06-28T07:42:59.622Z,49.29
2016-06-28T07:44:00.233Z,49.39
2016-06-28T07:45:00.231Z,49.1
2016-06-28T07:45:59.635Z,49.1
2016-06-28T07:46:59.648Z,48.61
2016-06-28T07:48:00.255Z,48.13
2016-06-28T07:49:00.656Z,49.19
2016-06-28T07:49:59.660Z,48.61
2016-06-28T07:51:00.274Z,49.37
2016-06-28T07:51:59.668Z,49.1
2016-06-28T07:53:00.281Z,48.42
2016-06-28T07:54:00.292Z,48.23
2016-06-28T07:55:00.297Z,48.13
2016-06-28T07:56:00.293Z,47.45
2016-06-28T07:57:00.303Z,48.23
2016-06-28T07:57:59.703Z,48.42
2016-06-28T07:59:00.331Z,48.52
2016-06-28T08:00:00.610Z,48.81
2016-06-28T08:01:00.371Z,48.49
2016-06-28T08:01:59.719Z,48.79
2016-06-28T08:02:59.766Z,48.59
2016-06-28T08:04:00.336Z,49
2016-06-28T08:04:59.729Z,49.27
2016-06-28T08:05:59.732Z,48.9
2016-06-28T08:07:00.347Z,48.79
2016-06-28T08:08:00.350Z,48.97
2016-06-28T08:09:00.658Z,48.88
2016-06-28T08:10:00.408Z,48.49
2016-06-28T08:11:00.374Z,48.88
2016-06-28T08:11:59.769Z,49.19
2016-06-28T08:13:00.379Z,49.1
2016-06-28T08:13:59.775Z,48.61
2016-06-28T08:15:00.391Z,48.61
2016-06-28T08:16:00.399Z,49.19
2016-06-28T08:17:00.395Z,48.71
2016-06-28T08:18:00.396Z,49.1
2016-06-28T08:18:59.796Z,48.39
2016-06-28T08:20:00.410Z,48.97
2016-06-28T08:20:59.812Z,48.88
2016-06-28T08:21:59.811Z,48.23
2016-06-28T08:23:00.433Z,47.43
2016-06-28T08:24:00.432Z,48.69
2016-06-28T08:25:00.452Z,48.79
2016-06-28T08:25:59.841Z,47.81
2016-06-28T08:27:00.458Z,48.59
2016-06-28T08:27:59.857Z,48.3
2016-06-28T08:29:00.463Z,48.59
2016-06-28T08:29:59.852Z,48.01
2016-06-28T08:30:59.863Z,48.59
2016-06-28T08:31:59.865Z,48.39
2016-06-28T08:33:01.532Z,48.52
2016-06-28T08:33:59.882Z,48.3
2016-06-28T08:35:00.503Z,48.97
2016-06-28T08:36:00.503Z,48.79
2016-06-28T08:37:00.514Z,48.39
2016-06-28T08:37:59.904Z,48.49
2016-06-28T08:39:00.521Z,48.69
2016-06-28T08:39:59.909Z,48.59
2016-06-28T08:41:00.533Z,48.59
2016-06-28T08:41:59.912Z,48.79
2016-06-28T08:43:00.537Z,48.97
2016-06-28T08:44:01.286Z,49.37
2016-06-28T08:45:00.558Z,48.97
2016-06-28T08:46:00.578Z,49.29
2016-06-28T08:47:00.563Z,48.11
2016-06-28T08:48:00.568Z,48.79
2016-06-28T08:49:00.570Z,48.11
2016-06-28T08:50:00.577Z,48.3
2016-06-28T08:50:59.973Z,48.11
2016-06-28T08:52:00.604Z,48.3
2016-06-28T08:53:01.220Z,49.17
2016-06-28T08:54:00.601Z,48.39
2016-06-28T08:55:00.853Z,48.69
2016-06-28T08:56:00.605Z,48.3
2016-06-28T08:57:00.616Z,48.49
2016-06-28T08:58:00.622Z,47.81
2016-06-28T08:59:00.621Z,48.49
2016-06-28T09:00:00.625Z,48.3
2016-06-28T09:01:00.628Z,48.59
2016-06-28T09:02:00.027Z,48.11
2016-06-28T09:03:00.039Z,47.63
2016-06-28T09:04:01.187Z,47.91
2016-06-28T09:05:00.654Z,49.07
2016-06-28T09:06:00.704Z,48.01
2016-06-28T09:07:00.716Z,48.3
2016-06-28T09:08:00.668Z,48.39
2016-06-28T09:09:00.688Z,48.3
2016-06-28T09:10:00.089Z,48.21
2016-06-28T09:11:00.684Z,48.39
2016-06-28T09:12:00.687Z,48.21
2016-06-28T09:13:00.699Z,48.3
2016-06-28T09:14:00.694Z,48.79
2016-06-28T09:15:00.739Z,48.11
2016-06-28T09:16:00.714Z,47.53
2016-06-28T09:17:00.361Z,48.01
2016-06-28T09:18:00.118Z,48.01
2016-06-28T09:19:00.729Z,47.33
2016-06-28T09:20:00.726Z,48.39
2016-06-28T09:21:00.729Z,48.01
2016-06-28T09:22:00.745Z,47.14
2016-06-28T09:23:00.134Z,47.81
2016-06-28T09:24:00.758Z,47.63
2016-06-28T09:25:00.763Z,48.3
2016-06-28T09:26:01.265Z,47.43
2016-06-28T09:27:00.782Z,47.24
2016-06-28T09:28:00.774Z,47.53
2016-06-28T09:29:00.174Z,47.33
2016-06-28T09:30:00.173Z,48.01
2016-06-28T09:31:00.796Z,47.63
2016-06-28T09:32:00.798Z,47.81
2016-06-28T09:33:00.869Z,48.01
2016-06-28T09:34:00.206Z,48.3
2016-06-28T09:35:00.211Z,47.43
2016-06-28T09:36:00.825Z,46.56
2016-06-28T09:37:00.983Z,45.89
2016-06-28T09:38:00.828Z,46.08
2016-06-28T09:39:00.230Z,45.5
2016-06-28T09:40:00.230Z,45.4
2016-06-28T09:41:00.248Z,45.4
2016-06-28T09:42:00.851Z,45.4
2016-06-28T09:43:00.258Z,44.92
2016-06-28T09:44:00.867Z,45.59
2016-06-28T09:45:00.885Z,45.79
2016-06-28T09:46:00.881Z,45.31
2016-06-28T09:47:00.890Z,44.34
2016-06-28T09:48:01.094Z,46.08
2016-06-28T09:49:00.889Z,45.59
2016-06-28T09:50:00.905Z,45.59
2016-06-28T09:51:00.898Z,45.31
2016-06-28T09:52:01.819Z,45.33
2016-06-28T09:53:00.931Z,45.89
2016-06-28T09:54:00.927Z,46.27
2016-06-28T09:55:00.322Z,46.75
2016-06-28T09:56:00.946Z,46.85
2016-06-28T09:57:00.946Z,46.27
2016-06-28T09:58:00.948Z,45.89
2016-06-28T09:59:00.344Z,45.11
2016-06-28T10:00:00.969Z,44.53
2016-06-28T10:01:01.776Z,45.98
2016-06-28T10:02:00.972Z,45.21
2016-06-28T10:03:01.478Z,45.31
2016-06-28T10:04:00.370Z,44.82
2016-06-28T10:05:01.075Z,45.52
2016-06-28T10:06:01.012Z,45.98
2016-06-28T10:07:01.073Z,45.91
2016-06-28T10:08:01.043Z,45.31
2016-06-28T10:09:00.405Z,45.5
2016-06-28T10:10:01.043Z,45.04
2016-06-28T10:11:01.048Z,44.56
2016-06-28T10:12:02.170Z,44.75
2016-06-28T10:13:00.445Z,45.14
2016-06-28T10:14:01.356Z,44.75
2016-06-28T10:15:00.451Z,43.98
2016-06-28T10:16:01.058Z,43.88
2016-06-28T10:17:01.082Z,44.75
2016-06-28T10:18:01.082Z,44.94
2016-06-28T10:19:01.080Z,44.75
2016-06-28T10:20:01.078Z,44.75
2016-06-28T10:21:01.092Z,46.58
2016-06-28T10:22:00.488Z,46.3
2016-06-28T10:23:01.491Z,46.68
2016-06-28T10:24:01.106Z,46.39
2016-06-28T10:25:01.128Z,46.3
2016-06-28T10:26:01.128Z,46.2
2016-06-28T10:27:01.125Z,46.27
2016-06-28T10:28:01.135Z,46.37
2016-06-28T10:29:00.533Z,46.1
2016-06-28T10:30:00.534Z,46.3
2016-06-28T10:31:01.158Z,46.2
2016-06-28T10:32:00.556Z,46.3
2016-06-28T10:33:01.169Z,45.81
2016-06-28T10:34:01.111Z,44.94
2016-06-28T10:35:01.196Z,44.65
2016-06-28T10:36:01.186Z,44.75
2016-06-28T10:37:01.198Z,45.14
2016-06-28T10:38:01.206Z,45.04
2016-06-28T10:39:01.227Z,45.81
2016-06-28T10:40:01.242Z,46.3
2016-06-28T10:41:01.239Z,45.91
2016-06-28T10:42:01.225Z,45.52
2016-06-28T10:43:00.617Z,45.59
2016-06-28T10:44:01.228Z,45.21
2016-06-28T10:45:01.415Z,45.11
2016-06-28T10:46:01.251Z,45.04
2016-06-28T10:47:02.233Z,45.14
2016-06-28T10:48:01.257Z,45.04
2016-06-28T10:49:01.319Z,45.04
2016-06-28T10:50:00.666Z,45.31
2016-06-28T10:51:01.271Z,45.04
2016-06-28T10:52:01.317Z,45.52
2016-06-28T10:53:01.290Z,45.81
2016-06-28T10:54:01.304Z,46.39
2016-06-28T10:55:01.296Z,45.33
2016-06-28T10:56:00.698Z,45.52
2016-06-28T10:57:01.314Z,45.42
2016-06-28T10:58:02.299Z,45.33
2016-06-28T10:59:00.729Z,45.42
2016-06-28T11:00:01.330Z,45.91
2016-06-28T11:01:01.350Z,45.81
2016-06-28T11:02:01.368Z,45.72
2016-06-28T11:03:01.354Z,46.58
2016-06-28T11:04:01.406Z,45.91
2016-06-28T11:05:00.761Z,45.23
2016-06-28T11:06:01.375Z,45.23
2016-06-28T11:07:01.439Z,45.81
2016-06-28T11:08:01.381Z,44.94
2016-06-28T11:09:02.178Z,45.14
2016-06-28T11:10:00.778Z,45.62
2016-06-28T11:11:00.785Z,45.23
2016-06-28T11:12:01.423Z,45.42
2016-06-28T11:13:00.795Z,45.14
2016-06-28T11:14:00.803Z,45.33
2016-06-28T11:15:01.439Z,45.23
2016-06-28T11:16:00.824Z,46.1
2016-06-28T11:17:00.831Z,45.23
2016-06-28T11:18:01.442Z,44.94
2016-06-28T11:19:01.462Z,45.62
2016-06-28T11:20:02.558Z,46
2016-06-28T11:21:01.464Z,45.23
2016-06-28T11:22:01.470Z,44.84
2016-06-28T11:23:01.472Z,45.52
2016-06-28T11:24:00.861Z,45.81
2016-06-28T11:25:01.484Z,45.62
2016-06-28T11:26:01.482Z,45.62
2016-06-28T11:27:01.494Z,45.52
2016-06-28T11:28:00.877Z,45.62
2016-06-28T11:29:01.507Z,45.62
2016-06-28T11:30:00.899Z,45.52
2016-06-28T11:31:02.191Z,45.33
2016-06-28T11:32:01.523Z,45.23
2016-06-28T11:33:00.915Z,44.94
2016-06-28T11:34:01.533Z,45.62
2016-06-28T11:35:01.548Z,45.52
2016-06-28T11:36:01.547Z,45.52
2016-06-28T11:37:00.937Z,45.62
2016-06-28T11:38:01.565Z,45.62
2016-06-28T11:39:01.583Z,45.52
2016-06-28T11:40:00.967Z,45.72
2016-06-28T11:41:00.956Z,45.33
2016-06-28T11:42:02.183Z,45.23
2016-06-28T11:43:00.980Z,45.42
2016-06-28T11:44:00.982Z,44.84
2016-06-28T11:45:01.639Z,45.23
2016-06-28T11:46:01.603Z,45.62
2016-06-28T11:47:00.999Z,45.52
2016-06-28T11:48:01.609Z,45.81
2016-06-28T11:49:01.624Z,44.75
2016-06-28T11:50:01.045Z,45.04
2016-06-28T11:51:01.009Z,44.75
2016-06-28T11:52:01.638Z,44.75
2016-06-28T11:53:02.693Z,45.33
2016-06-28T11:54:01.687Z,45.33
2016-06-28T11:55:01.648Z,45.81
2016-06-28T11:56:01.720Z,45.91
2016-06-28T11:57:01.681Z,44.94
2016-06-28T11:58:01.063Z,45.33
2016-06-28T11:59:01.055Z,45.04
2016-06-28T12:00:01.710Z,45.52
2016-06-28T12:01:01.736Z,45.23
2016-06-28T12:02:01.703Z,45.62
2016-06-28T12:03:01.086Z,45.91
2016-06-28T12:04:02.765Z,45.52
2016-06-28T12:05:01.708Z,46
2016-06-28T12:06:01.732Z,45.52
2016-06-28T12:07:01.736Z,45.72
2016-06-28T12:08:01.729Z,45.33
2016-06-28T12:09:01.121Z,45.62
2016-06-28T12:10:01.128Z,46.49
2016-06-28T12:11:01.775Z,46.1
2016-06-28T12:12:01.996Z,46.3
2016-06-28T12:13:01.779Z,46.39
2016-06-28T12:14:01.778Z,46.3
2016-06-28T12:15:02.662Z,45.91
2016-06-28T12:16:01.806Z,45.62
2016-06-28T12:17:01.194Z,46.3
2016-06-28T12:18:01.192Z,44.75
2016-06-28T12:19:01.818Z,45.23
2016-06-28T12:20:01.826Z,45.04
2016-06-28T12:21:01.832Z,45.23
2016-06-28T12:22:01.842Z,46.22
2016-06-28T12:23:01.846Z,45.33
2016-06-28T12:24:02.957Z,44.94
2016-06-28T12:25:01.239Z,44.84
2016-06-28T12:26:02.614Z,44.84
2016-06-28T12:27:01.907Z,45.23
2016-06-28T12:28:01.871Z,45.33
2016-06-28T12:29:01.264Z,46.12
2016-06-28T12:30:01.876Z,46.49
2016-06-28T12:31:01.888Z,46.3
2016-06-28T12:32:01.915Z,45.72
2016-06-28T12:33:01.907Z,46.1
2016-06-28T12:34:01.915Z,45.72
2016-06-28T12:35:03.016Z,45.91
2016-06-28T12:36:01.309Z,45.93
2016-06-28T12:37:01.966Z,45.14
2016-06-28T12:38:01.935Z,45.64
2016-06-28T12:39:16.768Z,45.52
2016-06-28T12:40:01.950Z,46.32
2016-06-28T12:41:01.982Z,45.72
2016-06-28T12:42:01.978Z,45.91
2016-06-28T12:43:01.344Z,46.42
2016-06-28T12:44:01.354Z,46.39
2016-06-28T12:45:01.385Z,46.3
2016-06-28T12:46:02.897Z,46.32
2016-06-28T12:47:01.375Z,46.2
2016-06-28T12:48:01.787Z,45.52
2016-06-28T12:49:02.012Z,45.72
2016-06-28T12:50:02.014Z,46.1
2016-06-28T12:51:02.018Z,46.32
2016-06-28T12:52:02.047Z,46.3
2016-06-28T12:53:01.414Z,46.61
2016-06-28T12:54:02.037Z,46.8
2016-06-28T12:55:02.051Z,47.09
2016-06-28T12:56:02.047Z,46.32
2016-06-28T12:57:01.443Z,45.93
2016-06-28T12:58:01.456Z,45.81
2016-06-28T12:59:02.699Z,46.3
2016-06-28T13:00:02.081Z,46.42
2016-06-28T13:01:02.090Z,46.22
2016-06-28T13:02:02.091Z,46.12
2016-06-28T13:03:01.491Z,46.39
2016-06-28T13:04:01.480Z,45.72